map of CVQ home
CVQ - Airport
Location
City:  Carnarvon, Western Australia, Australia
ICAO:YCAR
IATA:CVQ

Details
Type:Airport (Aerodrome, Airfield)
Latitude:2452'50"S (-24.880555)
Longitude:11340'20"E (113.672222)
Datum:WGS 1984
Elevation:13 ft (4 m)
Variation:0.35W (WMM2015 magnetic declination)
-0.03 annual change
Runways:2
Longest:5509 × 98 ft (1679 × 30 m), paved

Time
Time Zone:UTC+8
Local Time:

Weather
METAR:YCAR 161400Z AUTO 20022KT 9999 // SCT021 SCT030 OVC065 21/17 Q1012

Related Locations
Nearby:
Farthest:GDT: 12054 mi / 19398 km
Grand Turk [J.A.G.S. McCartney Intl (Grand Turk Intl)], Grand Turk Island, TC

Find:

   beyond  
but within

Other Information
Maps:
NOTAMs:
Links:
Sources:

  
  • flag of Australia
  • flag of Western Australia
  

Sectional Chart

Flight Planning
at skyvector.com

Satellite Image

Google Maps Satellite view

 

Copyright © 2004-2018 Karl L. Swartz. All rights reserved.
The Great Circle Mapper name and logo are trademarks of the Great Circle Mapper.
All other trademarks mentioned herein belong to their respective owners.
Please see credits for attibutions and further copyright information.

  Follow gcmap on Facebook Follow gcmap on Twitter Follow gcmap on Google+ GCmap on LinkedIn

hCard Microformat

Geo Microformat